Time;durP1;ratioP1;P1;durP2;ratioP2;P2;SDS_P1;SDS_P2;PMS_P1;PMS_P2;Temp;Humidity;BMP_temperature;BMP_pressure;BME280_temperature;BME280_humidity;BME280_pressure;Samples;Min_cycle;Max_cycle;Signal;HPM_P1;HPM_P2
2021/01/17 00:01:52;;;;;;;42.05;23.33;;;;;;;-2.09;66.44;95401.69;5012426;28;20513;-77
2021/01/17 00:04:18;;;;;;;42.60;23.90;;;;;;;-2.04;65.95;95427.09;5030578;28;20041;-76
2021/01/17 00:06:43;;;;;;;39.20;21.48;;;;;;;-2.38;66.10;95346.69;5030361;28;20029;-76
2021/01/17 00:09:08;;;;;;;41.60;22.20;;;;;;;-2.14;65.77;95380.69;5032127;28;20067;-76
2021/01/17 00:11:34;;;;;;;41.92;22.90;;;;;;;-1.97;65.49;95406.97;5012733;28;20913;-76
2021/01/17 00:13:59;;;;;;;41.05;22.40;;;;;;;-2.02;65.73;95383.34;5030246;28;20045;-77
2021/01/17 00:16:24;;;;;;;44.58;23.63;;;;;;;-1.92;65.55;95394.06;5030564;28;20045;-77
2021/01/17 00:18:50;;;;;;;43.00;23.63;;;;;;;-1.95;65.30;95382.25;5030273;28;20037;-78
2021/01/17 00:21:15;;;;;;;40.22;22.00;;;;;;;-1.94;65.53;95375.25;5032056;28;20557;-76
2021/01/17 00:23:40;;;;;;;40.63;21.65;;;;;;;-1.99;65.21;95356.88;5012615;28;20526;-77
2021/01/17 00:26:05;;;;;;;37.17;21.92;;;;;;;-1.92;64.76;95365.38;5030489;28;20025;-77
2021/01/17 00:28:31;;;;;;;36.22;20.65;;;;;;;-1.96;64.96;95351.19;5030135;28;20530;-77
2021/01/17 00:30:56;;;;;;;37.72;21.40;;;;;;;-2.00;64.62;95334.41;5030278;28;20026;-78
2021/01/17 00:33:21;;;;;;;34.75;21.23;;;;;;;-1.84;65.39;95347.63;5030053;28;20056;-68
2021/01/17 00:35:47;;;;;;;38.40;22.15;;;;;;;-1.82;65.43;95342.19;5032367;28;20029;-78
2021/01/17 00:38:12;;;;;;;37.92;22.35;;;;;;;-1.75;65.34;95345.50;5030205;28;20095;-78
2021/01/17 00:40:37;;;;;;;33.75;20.92;;;;;;;-1.67;64.58;95360.84;5033951;28;20050;-78
2021/01/17 00:43:02;;;;;;;38.70;20.60;;;;;;;-1.72;64.35;95342.44;5034133;28;20447;-76
2021/01/17 00:45:28;;;;;;;35.67;20.77;;;;;;;-1.63;65.03;95350.75;5034156;28;20033;-77
2021/01/17 00:47:54;;;;;;;38.70;21.10;;;;;;;-1.77;64.70;95318.84;5018560;28;20083;-78
2021/01/17 00:50:20;;;;;;;34.70;20.90;;;;;;;-1.63;64.37;95329.91;5034190;28;20040;-79
2021/01/17 00:52:53;;;;;;;30.90;19.08;;;;;;;-1.57;64.17;95335.00;5034012;28;20117;-78
2021/01/17 00:55:19;;;;;;;31.88;19.02;;;;;;;-1.59;64.74;95329.25;5016668;28;20554;-78
2021/01/17 01:00:15;;;;;;;32.72;19.98;;;;;;;-1.46;64.62;95332.66;5033849;28;20495;-81
2021/01/17 01:02:42;;;;;;;33.50;19.60;;;;;;;-1.51;64.28;95322.09;5034368;28;20679;-81
2021/01/17 01:05:08;;;;;;;32.28;19.17;;;;;;;-1.44;63.86;95328.00;5034641;28;20097;-82
2021/01/17 01:07:34;;;;;;;30.58;19.17;;;;;;;-1.46;64.16;95327.44;5033176;28;20084;-81
2021/01/17 01:09:59;;;;;;;35.25;20.25;;;;;;;-1.52;64.19;95310.06;5034585;28;20065;-80
2021/01/17 01:12:24;;;;;;;33.72;19.90;;;;;;;-1.59;63.66;95295.31;5033654;28;20470;-80
2021/01/17 01:14:49;;;;;;;34.42;19.23;;;;;;;-1.51;64.18;95304.63;5035723;28;20071;-81
2021/01/17 01:17:15;;;;;;;33.60;20.17;;;;;;;-1.53;64.05;95300.66;5033333;28;20478;-80
2021/01/17 01:19:40;;;;;;;35.22;19.95;;;;;;;-1.55;64.33;95298.25;5034641;28;20072;-82
2021/01/17 01:22:06;;;;;;;35.03;19.52;;;;;;;-1.51;63.99;95298.63;5033312;28;20045;-80
2021/01/17 01:24:31;;;;;;;31.33;19.50;;;;;;;-1.50;63.73;95308.03;5034729;28;20099;-82
2021/01/17 01:26:57;;;;;;;36.83;20.38;;;;;;;-1.61;63.99;95288.72;5035195;28;20128;-82
2021/01/17 01:29:23;;;;;;;36.58;20.58;;;;;;;-1.61;64.19;95286.91;5027083;28;20045;-81
2021/01/17 01:31:48;;;;;;;32.47;19.52;;;;;;;-1.52;63.97;95290.00;5032055;28;20049;-79
2021/01/17 01:34:14;;;;;;;35.03;20.45;;;;;;;-1.63;63.82;95270.72;5033192;28;20038;-82
2021/01/17 01:36:41;;;;;;;34.65;20.50;;;;;;;-1.56;64.00;95283.63;5033194;28;20025;-82
2021/01/17 01:39:08;;;;;;;31.75;18.63;;;;;;;-1.55;64.44;95281.81;5035117;28;20026;-81
2021/01/17 01:41:36;;;;;;;30.88;18.90;;;;;;;-1.65;64.11;95270.13;5033879;28;20065;-80
2021/01/17 01:44:02;;;;;;;32.97;19.27;;;;;;;-1.59;63.95;95274.47;5034421;28;20033;-80
2021/01/17 01:46:29;;;;;;;30.20;18.92;;;;;;;-1.63;64.55;95262.88;5034038;28;20033;-81
2021/01/17 01:48:55;;;;;;;31.60;19.40;;;;;;;-1.73;64.76;95248.81;5032575;28;20040;-81
2021/01/17 01:51:23;;;;;;;32.63;19.90;;;;;;;-1.61;64.74;95260.03;5034757;28;20106;-81
2021/01/17 01:53:51;;;;;;;34.58;20.77;;;;;;;-1.69;64.64;95252.53;5034571;28;20041;-82
2021/01/17 01:56:17;;;;;;;29.70;19.17;;;;;;;-1.64;64.64;95253.47;5032892;28;20037;-81
2021/01/17 01:58:42;;;;;;;33.40;19.40;;;;;;;-1.71;64.57;95250.16;5033343;28;20033;-81
2021/01/17 02:01:09;;;;;;;26.63;18.13;;;;;;;-1.72;64.66;95222.50;5033402;28;20100;-81
2021/01/17 02:03:34;;;;;;;30.48;19.20;;;;;;;-1.51;64.68;95243.84;5033699;28;20475;-82
2021/01/17 02:06:00;;;;;;;26.70;17.83;;;;;;;-1.44;64.63;95247.13;5034595;28;20036;-81
2021/01/17 02:08:52;;;;;;;29.85;18.20;;;;;;;-1.25;63.92;95240.00;5033447;28;20489;-81
2021/01/17 02:11:31;;;;;;;30.00;18.33;;;;;;;-1.14;64.49;95233.97;5033588;28;20045;-81
2021/01/17 02:14:34;;;;;;;30.17;18.13;;;;;;;-1.03;64.21;95232.38;5032531;28;20113;-81
2021/01/17 02:17:04;;;;;;;28.85;17.92;;;;;;;-1.07;63.52;95219.00;5033111;28;20521;-82
2021/01/17 02:19:34;;;;;;;27.25;17.20;;;;;;;-1.00;63.28;95222.28;5033639;28;20044;-81
2021/01/17 02:22:01;;;;;;;27.35;18.00;;;;;;;-0.94;63.51;95213.50;5033145;28;20069;-80
2021/01/17 02:24:32;;;;;;;24.90;17.50;;;;;;;-0.86;63.03;95217.59;5033914;28;20471;-81
2021/01/17 02:26:59;;;;;;;29.63;18.65;;;;;;;-0.76;62.67;95219.63;5034351;28;20434;-82
2021/01/17 02:29:26;;;;;;;30.38;19.13;;;;;;;-0.88;62.79;95202.16;5032349;28;20079;-81
2021/01/17 02:31:56;;;;;;;27.27;18.25;;;;;;;-0.88;63.29;95196.13;5033201;28;20136;-82
2021/01/17 02:34:24;;;;;;;31.65;18.92;;;;;;;-0.83;63.09;95188.41;5033420;28;20466;-81
2021/01/17 02:37:18;;;;;;;31.63;18.38;;;;;;;-0.89;62.92;95173.66;5031874;28;20034;-80
2021/01/17 02:39:46;;;;;;;28.65;18.75;;;;;;;-0.74;63.38;95186.22;5031952;28;20399;-81
2021/01/17 02:42:11;;;;;;;27.63;18.65;;;;;;;-0.75;63.09;95171.59;5034656;28;20064;-81
2021/01/17 02:44:37;;;;;;;25.15;17.73;;;;;;;-0.62;62.96;95184.38;5031682;28;20071;-81
2021/01/17 02:47:02;;;;;;;25.10;18.00;;;;;;;-0.58;62.70;95169.81;5032777;28;20033;-82
2021/01/17 02:49:30;;;;;;;25.73;16.90;;;;;;;-0.54;62.13;95171.72;5033065;28;20065;-80
2021/01/17 02:51:56;;;;;;;26.42;17.40;;;;;;;-0.63;62.50;95152.22;5032879;28;20523;-82
2021/01/17 02:54:33;;;;;;;25.38;17.15;;;;;;;-0.57;62.97;95163.56;5031821;28;20415;-78
2021/01/17 02:57:09;;;;;;;31.13;19.00;;;;;;;-0.59;62.95;95153.34;5034622;28;20104;-81
2021/01/17 02:59:47;;;;;;;27.23;17.17;;;;;;;-0.55;62.74;95154.47;5032441;28;20037;-82
2021/01/17 03:02:14;;;;;;;23.38;16.05;;;;;;;-0.51;62.81;95154.81;5032359;28;20072;-81
2021/01/17 03:04:45;;;;;;;28.17;17.50;;;;;;;-0.40;62.61;95161.00;5032581;28;20025;-81
2021/01/17 03:07:13;;;;;;;25.20;16.73;;;;;;;-0.45;62.94;95138.19;5032468;28;20060;-81
2021/01/17 03:09:41;;;;;;;21.35;15.90;;;;;;;-0.37;62.51;95153.47;5032221;28;20060;-82
2021/01/17 03:12:07;;;;;;;25.08;16.15;;;;;;;-0.38;62.97;95156.34;5033903;28;20238;-81
2021/01/17 03:14:36;;;;;;;24.02;16.77;;;;;;;-0.37;63.24;95148.25;5032486;28;20416;-82
2021/01/17 03:17:03;;;;;;;25.10;17.30;;;;;;;-0.44;63.15;95147.63;5032026;28;20037;-82
2021/01/17 03:19:29;;;;;;;26.13;17.25;;;;;;;-0.65;63.52;95125.56;5030634;28;20034;-72
2021/01/17 03:21:54;;;;;;;24.45;16.15;;;;;;;-0.64;63.54;95129.75;5027751;28;20044;-69
2021/01/17 03:24:19;;;;;;;24.77;16.75;;;;;;;-0.66;63.68;95131.81;5031945;28;20033;-71
2021/01/17 03:26:45;;;;;;;22.52;16.08;;;;;;;-0.66;63.66;95128.41;5029896;28;20041;-70
2021/01/17 03:29:10;;;;;;;21.88;15.52;;;;;;;-0.55;64.14;95140.63;5028564;28;20045;-71
2021/01/17 03:31:35;;;;;;;22.00;15.32;;;;;;;-0.53;63.78;95131.50;5029633;28;20053;-71
2021/01/17 03:34:00;;;;;;;23.00;15.45;;;;;;;-0.39;64.15;95144.31;5028610;28;20040;-71
2021/01/17 03:36:26;;;;;;;23.02;16.23;;;;;;;-0.42;64.13;95123.84;5029556;28;20061;-71
2021/01/17 03:38:51;;;;;;;25.10;16.15;;;;;;;-0.43;63.96;95119.66;5031378;28;20096;-71
2021/01/17 03:41:16;;;;;;;23.27;15.63;;;;;;;-0.32;64.35;95131.88;5029435;28;20064;-71
2021/01/17 03:43:42;;;;;;;24.92;15.60;;;;;;;-0.32;64.12;95127.44;5029787;28;20038;-71
2021/01/17 03:46:07;;;;;;;22.92;15.77;;;;;;;-0.41;64.10;95128.88;5028164;28;20033;-73
2021/01/17 03:48:32;;;;;;;22.63;15.88;;;;;;;-0.36;64.68;95128.13;5027091;28;20049;-71
2021/01/17 03:50:57;;;;;;;23.27;15.57;;;;;;;-0.32;64.46;95132.66;5030899;28;20041;-71
2021/01/17 03:53:23;;;;;;;23.55;15.13;;;;;;;-0.29;64.19;95136.63;5029455;28;20029;-71
2021/01/17 03:55:48;;;;;;;22.35;14.77;;;;;;;-0.37;64.29;95121.31;5029482;28;20542;-71
2021/01/17 03:58:13;;;;;;;21.50;14.38;;;;;;;-0.38;63.85;95128.38;5029427;28;20096;-72
2021/01/17 04:00:39;;;;;;;20.77;15.13;;;;;;;-0.29;64.42;95132.19;5029086;28;20021;-70
2021/01/17 04:03:04;;;;;;;19.67;14.27;;;;;;;-0.38;64.26;95135.44;5031198;28;20033;-71
2021/01/17 04:05:30;;;;;;;19.33;13.25;;;;;;;-0.61;63.32;95103.16;5029256;28;20040;-71
2021/01/17 04:07:55;;;;;;;22.52;15.38;;;;;;;-0.49;64.74;95133.66;5028721;28;20041;-71
2021/01/17 04:10:21;;;;;;;18.48;14.38;;;;;;;-0.40;64.53;95130.44;5027829;28;20125;-70
2021/01/17 04:12:46;;;;;;;19.33;13.70;;;;;;;-0.35;65.00;95135.75;5028718;28;20053;-72
2021/01/17 04:15:11;;;;;;;18.05;13.00;;;;;;;-0.44;64.70;95112.84;5030525;28;20029;-71
2021/01/17 04:17:37;;;;;;;19.15;13.63;;;;;;;-0.32;65.12;95147.56;5028782;28;20038;-71
2021/01/17 04:20:04;;;;;;;16.85;13.35;;;;;;;-0.31;65.29;95142.09;5028932;28;20049;-72
2021/01/17 04:22:29;;;;;;;20.08;13.65;;;;;;;-0.35;65.15;95132.34;5028899;28;20045;-71
2021/01/17 04:24:54;;;;;;;18.40;12.90;;;;;;;-0.33;65.48;95145.97;5027672;28;20045;-73
2021/01/17 04:27:20;;;;;;;18.55;13.18;;;;;;;-0.38;65.50;95131.00;5030832;28;20056;-71
2021/01/17 04:29:45;;;;;;;18.20;13.38;;;;;;;-0.52;65.86;95111.41;5028734;28;20101;-71
2021/01/17 04:32:10;;;;;;;18.70;13.15;;;;;;;-0.39;66.08;95145.09;5028758;28;20072;-71
2021/01/17 04:34:35;;;;;;;18.58;13.32;;;;;;;-0.81;66.41;95087.94;5027679;28;20483;-71
2021/01/17 04:37:01;;;;;;;17.60;13.35;;;;;;;-0.49;66.27;95123.22;5028697;28;20053;-71
2021/01/17 04:39:26;;;;;;;17.77;12.27;;;;;;;-0.38;66.44;95133.59;5028430;28;20033;-72
2021/01/17 04:41:56;;;;;;;17.25;12.35;;;;;;;-0.40;65.63;95138.28;5030409;28;20361;-72
2021/01/17 04:44:36;;;;;;;16.60;12.23;;;;;;;-0.60;66.22;95114.41;5028746;28;20041;-72
2021/01/17 04:47:05;;;;;;;16.92;11.98;;;;;;;-0.40;66.72;95140.09;5028708;28;20049;-72
2021/01/17 04:49:40;;;;;;;16.42;12.23;;;;;;;-0.58;66.35;95107.13;5028839;28;20045;-72
2021/01/17 04:52:08;;;;;;;15.60;11.30;;;;;;;-0.45;66.59;95125.13;5028501;28;20041;-70
2021/01/17 04:54:34;;;;;;;14.85;11.73;;;;;;;-0.38;66.71;95127.59;5028509;28;20038;-71
2021/01/17 04:57:07;;;;;;;16.38;12.70;;;;;;;-0.45;66.70;95124.34;5030430;28;20029;-70
2021/01/17 04:59:45;;;;;;;18.00;12.35;;;;;;;-0.41;66.87;95128.03;5028761;28;20116;-72
2021/01/17 05:02:24;;;;;;;18.05;12.63;;;;;;;-0.62;66.88;95092.94;5028522;28;20399;-70
2021/01/17 05:05:11;;;;;;;15.90;11.95;;;;;;;-0.40;66.92;95120.00;5028643;28;20045;-72
2021/01/17 05:07:38;;;;;;;13.30;10.80;;;;;;;-0.59;67.10;95093.25;5028272;28;20128;-72
2021/01/17 05:10:03;;;;;;;17.00;11.90;;;;;;;-0.34;67.16;95118.25;5027162;28;20069;-71
2021/01/17 05:12:36;;;;;;;13.05;10.35;;;;;;;-0.33;67.13;95107.56;5028358;28;20056;-71
2021/01/17 05:15:03;;;;;;;13.82;10.85;;;;;;;-0.36;67.46;95109.84;5030450;28;20026;-71
2021/01/17 05:17:36;;;;;;;12.40;10.20;;;;;;;-0.24;66.83;95117.63;5028186;28;20038;-70
2021/01/17 05:20:05;;;;;;;12.05;10.15;;;;;;;-0.36;67.16;95099.38;5028437;28;20111;-73
2021/01/17 05:22:31;;;;;;;14.60;11.18;;;;;;;-0.44;67.42;95094.56;5027960;28;20038;-71
2021/01/17 05:24:57;;;;;;;12.82;10.18;;;;;;;-0.26;67.34;95115.22;5028448;28;20040;-72
2021/01/17 05:27:22;;;;;;;14.20;10.85;;;;;;;-0.27;67.39;95113.66;5030816;28;20037;-71
2021/01/17 05:29:48;;;;;;;13.68;10.63;;;;;;;-0.31;67.66;95107.31;5033956;28;20044;-71
2021/01/17 05:32:14;;;;;;;12.77;10.02;;;;;;;-0.43;67.68;95088.31;5031897;28;20095;-71
2021/01/17 05:34:39;;;;;;;13.70;9.95;;;;;;;-0.31;67.31;95094.25;5031690;28;20043;-71
2021/01/17 05:37:08;;;;;;;12.15;10.15;;;;;;;-0.09;67.41;95125.72;5031783;28;20049;-72
2021/01/17 05:39:51;;;;;;;13.43;9.52;;;;;;;-0.08;67.08;95122.06;5031706;28;20113;-71
2021/01/17 05:42:17;;;;;;;12.70;10.55;;;;;;;-0.15;67.68;95119.63;5032372;28;20690;-72
2021/01/17 05:44:42;;;;;;;11.93;8.73;;;;;;;-0.48;66.94;95062.09;5032046;28;20042;-72
2021/01/17 05:47:08;;;;;;;11.25;8.88;;;;;;;-0.25;67.21;95103.78;5031649;28;20183;-73
2021/01/17 05:49:33;;;;;;;10.82;9.23;;;;;;;-0.07;67.61;95131.50;5031571;28;20046;-72
2021/01/17 05:52:13;;;;;;;12.68;9.20;;;;;;;0.00;67.57;95129.53;5031553;28;20098;-71
2021/01/17 05:54:40;;;;;;;12.32;8.73;;;;;;;0.03;67.70;95131.66;5031503;28;20057;-72
2021/01/17 05:57:25;;;;;;;12.52;9.32;;;;;;;-0.15;67.26;95117.00;5033064;28;20030;-72
2021/01/17 05:59:54;;;;;;;10.68;8.32;;;;;;;0.05;67.65;95137.44;5031560;28;20053;-71
2021/01/17 06:02:21;;;;;;;11.93;8.13;;;;;;;-0.18;67.16;95095.78;5030915;28;20175;-72
2021/01/17 06:04:55;;;;;;;9.07;7.90;;;;;;;-0.09;67.08;95116.06;5030244;28;20033;-71
2021/01/17 06:07:26;;;;;;;11.05;8.70;;;;;;;0.02;67.54;95132.69;5031494;28;20041;-72
2021/01/17 06:09:59;;;;;;;9.57;7.57;;;;;;;0.12;67.52;95138.09;5030382;28;20183;-72
2021/01/17 06:12:30;;;;;;;8.52;7.63;;;;;;;0.13;67.55;95144.91;5031645;28;20025;-71
2021/01/17 06:15:10;;;;;;;10.77;8.20;;;;;;;0.04;67.63;95135.06;5033612;28;20018;-73
2021/01/17 06:17:39;;;;;;;10.10;8.35;;;;;;;-0.02;67.68;95118.50;5031341;28;20041;-72
2021/01/17 06:20:10;;;;;;;8.20;6.97;;;;;;;0.12;67.79;95137.31;5031264;28;20045;-72
2021/01/17 06:22:36;;;;;;;9.35;7.50;;;;;;;0.14;68.30;95138.63;5031172;28;20060;-73
2021/01/17 06:25:05;;;;;;;9.65;7.75;;;;;;;0.17;67.92;95151.25;5031361;28;20037;-72
2021/01/17 06:27:31;;;;;;;9.35;7.88;;;;;;;0.06;67.87;95130.41;5030951;28;20091;-73
2021/01/17 06:29:56;;;;;;;9.07;7.88;;;;;;;0.11;68.25;95144.34;5032053;28;20456;-72
2021/01/17 06:32:29;;;;;;;9.05;7.18;;;;;;;-0.04;68.46;95123.97;5031023;28;20034;-73
2021/01/17 06:34:56;;;;;;;10.48;7.28;;;;;;;0.14;68.03;95146.47;5031079;28;20061;-72
2021/01/17 06:37:25;;;;;;;8.55;7.43;;;;;;;0.07;68.40;95145.84;5028821;28;20043;-73
2021/01/17 06:39:52;;;;;;;7.85;6.65;;;;;;;0.13;68.46;95159.81;5030880;28;20048;-73
2021/01/17 06:42:20;;;;;;;9.48;7.13;;;;;;;0.08;68.49;95131.75;5031535;28;20112;-73
2021/01/17 06:44:47;;;;;;;8.88;7.35;;;;;;;0.16;68.65;95144.44;5030875;28;20037;-72
2021/01/17 06:47:15;;;;;;;7.50;6.50;;;;;;;0.22;68.35;95147.91;5030474;28;20547;-73
2021/01/17 06:49:41;;;;;;;9.07;6.85;;;;;;;0.14;68.25;95130.00;5029348;28;20120;-73
2021/01/17 06:52:08;;;;;;;9.38;7.05;;;;;;;0.10;68.36;95121.03;5030493;28;20140;-73
2021/01/17 06:54:39;;;;;;;7.30;6.30;;;;;;;0.17;68.26;95130.31;5030672;28;20022;-73
2021/01/17 06:57:05;;;;;;;7.13;6.43;;;;;;;0.28;68.07;95133.88;5031232;28;20499;-73
2021/01/17 06:59:47;;;;;;;8.10;6.15;;;;;;;0.32;67.73;95150.69;5030572;28;20197;-74
2021/01/17 07:02:12;;;;;;;6.22;5.22;;;;;;;0.34;67.78;95143.38;5030244;28;20038;-73
2021/01/17 07:04:53;;;;;;;7.95;6.63;;;;;;;0.33;67.92;95149.66;5030233;28;20041;-72
2021/01/17 07:08:13;;;;;;;6.97;6.28;;;;;;;0.33;67.83;95154.88;5029907;28;20033;-73
2021/01/17 07:10:40;;;;;;;9.77;6.35;;;;;;;0.34;68.35;95150.44;5008119;28;20104;-73
2021/01/17 07:13:07;;;;;;;7.72;6.47;;;;;;;0.41;67.85;95157.13;5025681;28;20049;-72
2021/01/17 07:15:38;;;;;;;7.30;6.10;;;;;;;0.47;68.04;95168.44;5029889;28;20056;-72
2021/01/17 07:18:06;;;;;;;8.07;7.10;;;;;;;0.37;68.32;95142.13;5030805;28;20025;-73
2021/01/17 07:20:34;;;;;;;9.55;6.90;;;;;;;0.13;68.37;95108.28;5030345;28;20644;-73
2021/01/17 07:23:01;;;;;;;7.57;6.38;;;;;;;0.41;68.34;95149.25;5028595;28;20036;-73
2021/01/17 07:25:28;;;;;;;8.18;6.95;;;;;;;0.56;68.56;95153.91;5030372;28;20518;-73
2021/01/17 07:28:18;;;;;;;8.35;6.70;;;;;;;0.63;68.33;95159.78;5029250;28;20046;-72
2021/01/17 07:30:45;;;;;;;7.68;6.13;;;;;;;0.68;68.24;95169.53;5029862;28;20040;-73
2021/01/17 07:33:12;;;;;;;7.40;6.10;;;;;;;0.48;68.02;95141.22;5032099;28;20033;-73
2021/01/17 07:35:41;;;;;;;9.30;5.72;;;;;;;0.73;67.85;95172.22;5029950;28;20091;-73
2021/01/17 07:38:27;;;;;;;6.68;5.50;;;;;;;0.81;67.85;95165.75;5029610;28;20403;-72
2021/01/17 07:41:07;;;;;;;6.63;5.65;;;;;;;0.77;68.08;95165.47;5029820;28;20399;-73
2021/01/17 07:43:43;;;;;;;5.82;5.20;;;;;;;0.94;67.63;95163.59;5029503;28;20037;-72
2021/01/17 07:46:10;;;;;;;5.93;5.32;;;;;;;1.02;67.29;95167.59;5029775;28;20526;-71
2021/01/17 07:48:38;;;;;;;5.03;4.20;;;;;;;1.08;67.25;95152.75;5029014;28;20033;-72
2021/01/17 07:51:07;;;;;;;8.20;4.80;;;;;;;1.31;67.04;95173.47;5030505;28;20531;-73
2021/01/17 07:53:38;;;;;;;5.88;5.03;;;;;;;1.45;66.87;95169.44;5028380;28;20391;-73
2021/01/17 07:56:29;;;;;;;7.88;5.75;;;;;;;1.50;66.59;95181.81;5029745;28;20453;-74
2021/01/17 07:59:00;;;;;;;6.32;5.28;;;;;;;1.68;66.19;95181.47;5029103;28;20388;-72
2021/01/17 08:01:32;;;;;;;6.25;5.60;;;;;;;1.83;65.99;95168.50;5029046;28;20087;-72
2021/01/17 08:04:03;;;;;;;6.32;5.72;;;;;;;1.97;65.95;95173.34;5029581;28;20095;-73
2021/01/17 08:06:35;;;;;;;5.55;4.55;;;;;;;2.01;65.29;95174.44;5029467;28;20571;-73
2021/01/17 08:09:11;;;;;;;4.90;4.25;;;;;;;2.02;65.34;95161.06;5031080;28;20021;-74
2021/01/17 08:11:45;;;;;;;5.47;4.88;;;;;;;2.26;65.58;95171.25;5030124;28;20037;-79
2021/01/17 08:14:30;;;;;;;7.07;4.85;;;;;;;2.15;64.23;95159.06;5030548;28;20037;-79
2021/01/17 08:17:12;;;;;;;6.03;4.53;;;;;;;1.88;64.55;95173.00;5029465;28;20034;-77
2021/01/17 08:19:39;;;;;;;5.53;4.55;;;;;;;2.23;65.08;95180.41;5029252;28;20045;-73
2021/01/17 08:22:17;;;;;;;5.10;4.60;;;;;;;1.98;64.42;95178.34;5026276;28;20045;-75
2021/01/17 08:24:49;;;;;;;4.93;4.50;;;;;;;1.97;64.48;95115.66;5027187;28;20056;-76
2021/01/17 08:27:35;;;;;;;4.78;4.38;;;;;;;2.23;64.15;95141.03;5032964;28;20041;-81
2021/01/17 08:30:00;;;;;;;5.28;4.65;;;;;;;1.95;64.20;95173.63;5028224;28;20057;-82
2021/01/17 08:32:38;;;;;;;5.47;4.82;;;;;;;1.97;65.08;95174.16;5029743;28;20054;-73
2021/01/17 08:35:23;;;;;;;6.22;5.35;;;;;;;1.81;64.58;95181.09;5029341;28;20474;-78
2021/01/17 08:37:57;;;;;;;6.40;5.55;;;;;;;0.99;68.55;95178.56;5030731;28;20551;-74
2021/01/17 08:40:28;;;;;;;6.80;5.57;;;;;;;1.38;67.39;95187.16;5030791;28;20096;-77
2021/01/17 08:42:56;;;;;;;6.65;5.88;;;;;;;1.66;67.05;95182.75;5030382;28;20137;-73
2021/01/17 08:45:21;;;;;;;9.23;6.13;;;;;;;1.31;68.25;95189.19;5030905;28;20471;-69
2021/01/17 08:47:53;;;;;;;8.02;7.13;;;;;;;1.68;66.72;95201.66;5030340;28;20132;-71
2021/01/17 08:50:28;;;;;;;7.70;6.70;;;;;;;0.76;69.80;95205.75;5030112;28;20049;-74
2021/01/17 08:53:06;;;;;;;8.95;7.10;;;;;;;0.97;70.19;95212.88;5029967;28;20048;-77
2021/01/17 08:55:39;;;;;;;7.60;6.80;;;;;;;0.85;69.63;95209.53;5029671;28;20037;-71
2021/01/17 08:58:05;;;;;;;8.82;7.50;;;;;;;0.01;73.23;95209.56;5028507;28;20534;-69
2021/01/17 09:00:49;;;;;;;8.25;7.35;;;;;;;-0.01;73.18;95225.47;5029980;28;20056;-75
2021/01/17 09:03:37;;;;;;;8.90;7.85;;;;;;;-0.06;73.98;95224.59;5035173;28;20107;-76
2021/01/17 09:06:23;;;;;;;9.90;7.63;;;;;;;0.42;73.98;95226.72;5033920;28;20034;-73
2021/01/17 09:08:50;;;;;;;10.73;7.65;;;;;;;1.08;71.22;95226.09;5033616;28;20563;-76
2021/01/17 09:11:31;;;;;;;9.52;7.95;;;;;;;1.17;69.51;95233.28;5033239;28;20506;-74
2021/01/17 09:14:23;;;;;;;8.77;7.78;;;;;;;0.77;70.59;95229.09;5033095;28;20042;-73
2021/01/17 09:16:56;;;;;;;8.75;7.72;;;;;;;0.18;72.50;95238.34;5032981;28;20042;-80
2021/01/17 09:19:30;;;;;;;10.70;7.93;;;;;;;-0.46;74.22;95233.28;5032938;28;20042;-71
2021/01/17 09:21:57;;;;;;;12.93;10.05;;;;;;;0.04;74.35;95250.13;5033095;28;20029;-72
2021/01/17 09:24:52;;;;;;;16.85;10.32;;;;;;;0.14;73.79;95251.09;5033153;28;20386;-69
2021/01/17 09:27:18;;;;;;;16.92;10.77;;;;;;;0.74;71.67;95223.53;5024535;28;20041;-73
2021/01/17 09:29:45;;;;;;;15.77;9.85;;;;;;;-0.31;73.94;95249.28;5033116;28;20152;-73
2021/01/17 09:32:14;;;;;;;16.10;12.18;;;;;;;0.13;74.80;95248.72;5032983;28;20030;-75
2021/01/17 09:34:41;;;;;;;20.42;11.40;;;;;;;-0.63;75.81;95256.72;5033201;28;20120;-73
2021/01/17 09:37:10;;;;;;;20.10;13.27;;;;;;;-0.08;74.01;95235.28;5031218;28;20033;-71
2021/01/17 09:39:57;;;;;;;17.25;13.30;;;;;;;-0.36;74.61;95259.63;5032738;28;20022;-72
2021/01/17 09:42:24;;;;;;;19.38;13.15;;;;;;;-0.20;73.67;95250.25;5031300;28;20057;-69
2021/01/17 09:44:58;;;;;;;16.85;12.50;;;;;;;0.29;72.26;95247.16;5034736;28;20487;-74
2021/01/17 09:47:25;;;;;;;16.27;12.23;;;;;;;0.14;71.92;95255.53;5031360;28;20135;-72
2021/01/17 09:49:51;;;;;;;25.50;15.80;;;;;;;0.44;72.27;95257.88;5032656;28;20503;-68
2021/01/17 09:52:22;;;;;;;25.50;16.02;;;;;;;0.30;70.86;95233.84;5030802;28;20507;-74
2021/01/17 09:54:49;;;;;;;28.42;15.50;;;;;;;-0.21;74.13;95284.44;5032813;28;20048;-82
2021/01/17 09:57:26;;;;;;;28.15;17.35;;;;;;;0.66;73.64;95273.66;5034749;28;20029;-78
2021/01/17 09:59:53;;;;;;;24.77;16.35;;;;;;;0.40;72.45;95267.22;5032397;28;20108;-74
2021/01/17 10:02:25;;;;;;;27.48;14.98;;;;;;;0.38;71.03;95233.47;5029151;28;20586;-73
2021/01/17 10:04:51;;;;;;;23.73;14.73;;;;;;;-0.94;73.68;95160.50;5031737;28;20064;-75
2021/01/17 10:07:21;;;;;;;19.15;14.00;;;;;;;-0.28;74.20;95292.44;5032229;28;20037;-71
2021/01/17 10:09:48;;;;;;;26.95;14.73;;;;;;;-0.03;72.97;95261.53;5030270;28;20076;-77
2021/01/17 10:12:17;;;;;;;23.30;14.55;;;;;;;-0.43;74.13;95276.44;5032367;28;20024;-77
2021/01/17 10:14:42;;;;;;;22.38;16.05;;;;;;;0.43;72.28;95274.63;5032477;28;20121;-77
2021/01/17 10:17:08;;;;;;;19.70;15.05;;;;;;;0.25;72.55;95288.69;5031860;28;20543;-77
2021/01/17 10:19:37;;;;;;;26.65;15.85;;;;;;;0.24;72.89;95293.13;5031891;28;20044;-76
2021/01/17 10:22:03;;;;;;;26.25;16.13;;;;;;;0.22;72.58;95292.59;5031438;28;20041;-75
2021/01/17 10:24:33;;;;;;;23.70;14.38;;;;;;;-0.64;75.22;95291.72;5030684;28;20026;-72
2021/01/17 10:27:04;;;;;;;22.02;15.10;;;;;;;-0.28;75.62;95297.66;5033966;28;20079;-76
2021/01/17 10:29:35;;;;;;;24.37;16.27;;;;;;;0.34;73.78;95291.72;5031520;28;20037;-72
2021/01/17 10:32:03;;;;;;;29.02;18.33;;;;;;;0.60;72.50;95292.94;5031723;28;20134;-71
2021/01/17 10:34:31;;;;;;;22.38;15.70;;;;;;;-0.37;75.12;95296.44;5031940;28;20037;-72
2021/01/17 10:36:58;;;;;;;25.95;16.63;;;;;;;-0.14;75.50;95291.13;5030452;28;20514;-71
2021/01/17 10:39:25;;;;;;;32.67;18.52;;;;;;;0.32;74.61;95276.28;5031387;28;20483;-72
2021/01/17 10:42:00;;;;;;;29.85;17.85;;;;;;;0.87;73.25;95278.19;5032989;28;20053;-72
2021/01/17 10:44:28;;;;;;;28.10;18.45;;;;;;;0.57;72.21;95273.28;5031513;28;20029;-72
2021/01/17 10:47:01;;;;;;;30.88;19.08;;;;;;;0.42;72.63;95279.06;5031344;28;20034;-73
2021/01/17 10:49:33;;;;;;;32.40;20.65;;;;;;;1.01;72.04;95291.75;5031223;28;20033;-75
2021/01/17 10:52:03;;;;;;;28.65;19.60;;;;;;;0.49;72.81;95274.47;5032067;28;20067;-81
2021/01/17 10:54:31;;;;;;;32.95;17.45;;;;;;;-0.21;75.63;95287.06;5032484;28;20105;-78
2021/01/17 10:57:02;;;;;;;30.08;18.70;;;;;;;-0.19;75.83;95285.81;5033168;28;20021;-79
2021/01/17 10:59:29;;;;;;;36.03;17.52;;;;;;;-0.40;75.56;95265.53;5030313;28;20061;-81
2021/01/17 11:01:54;;;;;;;38.67;22.27;;;;;;;0.50;75.99;95276.03;5031540;28;20041;-75
2021/01/17 11:04:19;;;;;;;41.67;22.65;;;;;;;1.40;73.92;95279.47;5031365;28;20111;-73
2021/01/17 11:06:46;;;;;;;33.55;21.17;;;;;;;1.19;72.09;95281.00;5030762;28;20124;-74
2021/01/17 11:09:16;;;;;;;31.65;18.77;;;;;;;0.44;72.49;95291.91;5032980;28;20021;-74
2021/01/17 11:11:44;;;;;;;31.42;20.25;;;;;;;0.22;74.75;95284.72;5030866;28;20037;-75
2021/01/17 11:14:10;;;;;;;30.70;20.30;;;;;;;1.23;72.03;95278.72;5029822;28;20034;-82
2021/01/17 11:16:41;;;;;;;30.45;20.38;;;;;;;0.95;72.07;95277.00;5029659;28;20474;-74
2021/01/17 11:19:11;;;;;;;35.90;22.30;;;;;;;0.98;71.23;95282.56;5030943;28;20042;-78
2021/01/17 11:21:37;;;;;;;37.65;20.63;;;;;;;0.90;71.41;95285.56;5030903;28;20168;-76
2021/01/17 11:24:04;;;;;;;35.65;20.65;;;;;;;0.03;73.93;95243.31;5032500;28;20064;-82
2021/01/17 11:26:30;;;;;;;29.60;17.90;;;;;;;0.25;72.96;95294.72;5029887;28;20091;-80
2021/01/17 11:28:57;;;;;;;25.92;16.85;;;;;;;-0.36;74.96;95272.69;5030636;28;20037;-76
2021/01/17 11:31:23;;;;;;;26.33;18.40;;;;;;;-0.10;73.20;95229.53;5029836;28;20395;-84
2021/01/17 11:33:50;;;;;;;34.47;20.55;;;;;;;0.70;72.61;95285.25;5029856;28;20033;-73
2021/01/17 11:36:20;;;;;;;28.27;19.38;;;;;;;1.18;70.58;95266.34;5035119;28;20021;-83
2021/01/17 11:38:56;;;;;;;28.17;19.50;;;;;;;0.62;71.77;95294.31;5030802;28;20057;-79